PWSweather.com
Personal Weather Stations
Station Observations
KMAWOBUR2
West Side, Woburn, MA 01801

West SideWoburn, MA 01801

Lat: 42.458, Lon: -71.1955

Elevation: 160

Station Type: DAVIS/Vantage Pro2

http://pauland.net

High Low Average
Temperature 70.6°F21.4°C 64.2°F17.9°C 66.5°F19.2°C
Dew Point 65.5°F18.6°C 60.0°F15.6°C 62.9°F17.2°C
Winds 13.0 mph 20.9 kmh 2.0 mph 3.2 kmh 6.0 mph SW9.7 kmh SW
Wind Gusts 29.0 mph46.7 kmh 6.0 mph9.7 kmh 14.0 mph22.5 kmh
Humidity 95% 74% 88%
Pressure 29.90 in1012.5 mb 29.70 in1005.8 mb -
Precipitation 0.37 in9.4 mm - -
Hour Temp Dew Point Humidity Winds Wind Gusts Pressure Precip Precip Rate Daily Precip Total
12:00 AM 68.6°F20.3°C 60.0°F15.6°C 74% 7.0 mph SW11.3 kmh SW 17.0 mph27.4 kmh 29.77 in1008.1 mb 0.00 in0.0 mm 0.00 in0.0 mm 0.00 in0.0 mm
12:05 AM 68.8°F20.4°C 60.5°F15.8°C 75% 7.0 mph SW11.3 kmh SW 17.0 mph27.4 kmh 29.77 in1008.1 mb 0.00 in0.0 mm 0.00 in0.0 mm 0.00 in0.0 mm
12:10 AM 68.8°F20.4°C 60.5°F15.8°C 75% 6.0 mph WSW9.7 kmh WSW 14.0 mph22.5 kmh 29.77 in1008.1 mb 0.00 in0.0 mm 0.00 in0.0 mm 0.00 in0.0 mm
12:15 AM 68.6°F20.3°C 60.4°F15.8°C 75% 7.0 mph SSW11.3 kmh SSW 15.0 mph24.1 kmh 29.77 in1008.1 mb 0.00 in0.0 mm 0.00 in0.0 mm 0.00 in0.0 mm
12:20 AM 68.6°F20.3°C 60.4°F15.8°C 75% 7.0 mph SW11.3 kmh SW 16.0 mph25.7 kmh 29.77 in1008.1 mb 0.00 in0.0 mm 0.00 in0.0 mm 0.00 in0.0 mm
12:25 AM 68.4°F20.2°C 60.2°F15.7°C 75% 5.0 mph SW8.0 kmh SW 12.0 mph19.3 kmh 29.77 in1008.1 mb 0.00 in0.0 mm 0.00 in0.0 mm 0.00 in0.0 mm
12:30 AM 68.3°F20.2°C 60.4°F15.8°C 76% 5.0 mph WSW8.0 kmh WSW 12.0 mph19.3 kmh 29.78 in1008.5 mb 0.00 in0.0 mm 0.00 in0.0 mm 0.00 in0.0 mm
12:35 AM 68.1°F20.1°C 60.6°F15.9°C 77% 5.0 mph SW8.0 kmh SW 18.0 mph29.0 kmh 29.78 in1008.5 mb 0.00 in0.0 mm 0.00 in0.0 mm 0.00 in0.0 mm
12:40 AM 68.1°F20.1°C 60.6°F15.9°C 77% 9.0 mph WSW14.5 kmh WSW 21.0 mph33.8 kmh 29.78 in1008.5 mb 0.00 in0.0 mm 0.00 in0.0 mm 0.00 in0.0 mm
12:45 AM 68.1°F20.1°C 61.0°F16.1°C 78% 7.0 mph SW11.3 kmh SW 22.0 mph35.4 kmh 29.79 in1008.8 mb 0.00 in0.0 mm 0.00 in0.0 mm 0.00 in0.0 mm
12:50 AM 67.9°F19.9°C 60.8°F16.0°C 78% 6.0 mph SW9.7 kmh SW 15.0 mph24.1 kmh 29.79 in1008.8 mb 0.00 in0.0 mm 0.00 in0.0 mm 0.00 in0.0 mm
12:55 AM 67.8°F19.9°C 60.7°F15.9°C 78% 7.0 mph SSW11.3 kmh SSW 13.0 mph20.9 kmh 29.79 in1008.8 mb 0.00 in0.0 mm 0.00 in0.0 mm 0.00 in0.0 mm
01:00 AM 67.8°F19.9°C 60.7°F15.9°C 78% 7.0 mph SW11.3 kmh SW 15.0 mph24.1 kmh 29.79 in1008.8 mb 0.00 in0.0 mm 0.00 in0.0 mm 0.00 in0.0 mm
01:05 AM 67.8°F19.9°C 61.0°F16.1°C 79% 8.0 mph WSW12.9 kmh WSW 15.0 mph24.1 kmh 29.79 in1008.8 mb 0.00 in0.0 mm 0.00 in0.0 mm 0.00 in0.0 mm
01:10 AM 67.6°F19.8°C 60.8°F16.0°C 79% 6.0 mph SW9.7 kmh SW 14.0 mph22.5 kmh 29.79 in1008.8 mb 0.00 in0.0 mm 0.00 in0.0 mm 0.00 in0.0 mm
01:15 AM 67.6°F19.8°C 61.2°F16.2°C 80% 5.0 mph SW8.0 kmh SW 15.0 mph24.1 kmh 29.79 in1008.8 mb 0.00 in0.0 mm 0.00 in0.0 mm 0.00 in0.0 mm
01:20 AM 67.4°F19.7°C 61.0°F16.1°C 80% 5.0 mph SW8.0 kmh SW 12.0 mph19.3 kmh 29.79 in1008.8 mb 0.00 in0.0 mm 0.00 in0.0 mm 0.00 in0.0 mm
01:25 AM 67.4°F19.7°C 61.4°F16.3°C 81% 9.0 mph WSW14.5 kmh WSW 17.0 mph27.4 kmh 29.79 in1008.8 mb 0.00 in0.0 mm 0.00 in0.0 mm 0.00 in0.0 mm
01:30 AM 67.3°F19.6°C 61.3°F16.3°C 81% 7.0 mph SW11.3 kmh SW 16.0 mph25.7 kmh 29.79 in1008.8 mb 0.00 in0.0 mm 0.00 in0.0 mm 0.00 in0.0 mm
01:35 AM 67.1°F19.5°C 61.4°F16.3°C 82% 8.0 mph SW12.9 kmh SW 16.0 mph25.7 kmh 29.79 in1008.8 mb 0.00 in0.0 mm 0.00 in0.0 mm 0.00 in0.0 mm
01:40 AM 67.1°F19.5°C 61.4°F16.3°C 82% 5.0 mph SSW8.0 kmh SSW 15.0 mph24.1 kmh 29.79 in1008.8 mb 0.00 in0.0 mm 0.00 in0.0 mm 0.00 in0.0 mm
01:45 AM 66.9°F19.4°C 61.6°F16.4°C 83% 4.0 mph SW6.4 kmh SW 10.0 mph16.1 kmh 29.79 in1008.8 mb 0.00 in0.0 mm 0.00 in0.0 mm 0.00 in0.0 mm
01:50 AM 66.8°F19.3°C 61.8°F16.6°C 84% 6.0 mph SSW9.7 kmh SSW 15.0 mph24.1 kmh 29.79 in1008.8 mb 0.00 in0.0 mm 0.00 in0.0 mm 0.00 in0.0 mm
01:55 AM 66.6°F19.2°C 61.6°F16.4°C 84% 5.0 mph SSW8.0 kmh SSW 13.0 mph20.9 kmh 29.79 in1008.8 mb 0.00 in0.0 mm 0.00 in0.0 mm 0.00 in0.0 mm
02:00 AM 66.4°F19.1°C 61.7°F16.5°C 85% 6.0 mph SW9.7 kmh SW 15.0 mph24.1 kmh 29.79 in1008.8 mb 0.00 in0.0 mm 0.00 in0.0 mm 0.00 in0.0 mm
02:05 AM 66.4°F19.1°C 62.1°F16.7°C 86% 6.0 mph SSW9.7 kmh SSW 14.0 mph22.5 kmh 29.79 in1008.8 mb 0.00 in0.0 mm 0.00 in0.0 mm 0.00 in0.0 mm
02:10 AM 66.3°F19.1°C 62.0°F16.7°C 86% 5.0 mph SSW8.0 kmh SSW 11.0 mph17.7 kmh 29.79 in1008.8 mb 0.00 in0.0 mm 0.00 in0.0 mm 0.00 in0.0 mm
02:15 AM 66.1°F18.9°C 62.1°F16.7°C 87% 4.0 mph SSW6.4 kmh SSW 10.0 mph16.1 kmh 29.78 in1008.5 mb 0.00 in0.0 mm 0.00 in0.0 mm 0.00 in0.0 mm
02:20 AM 66.1°F18.9°C 62.1°F16.7°C 87% 6.0 mph SW9.7 kmh SW 14.0 mph22.5 kmh 29.78 in1008.5 mb 0.00 in0.0 mm 0.00 in0.0 mm 0.00 in0.0 mm
02:25 AM 66.0°F18.9°C 62.0°F16.7°C 87% 5.0 mph SW8.0 kmh SW 14.0 mph22.5 kmh 29.78 in1008.5 mb 0.00 in0.0 mm 0.00 in0.0 mm 0.00 in0.0 mm
02:30 AM 65.8°F18.8°C 61.8°F16.6°C 87% 7.0 mph SW11.3 kmh SW 13.0 mph20.9 kmh 29.78 in1008.5 mb 0.00 in0.0 mm 0.00 in0.0 mm 0.00 in0.0 mm
02:35 AM 65.8°F18.8°C 62.1°F16.7°C 88% 7.0 mph SW11.3 kmh SW 17.0 mph27.4 kmh 29.78 in1008.5 mb 0.00 in0.0 mm 0.00 in0.0 mm 0.00 in0.0 mm
02:40 AM 65.8°F18.8°C 62.1°F16.7°C 88% 5.0 mph SSW8.0 kmh SSW 15.0 mph24.1 kmh 29.78 in1008.5 mb 0.00 in0.0 mm 0.00 in0.0 mm 0.00 in0.0 mm
02:45 AM 65.8°F18.8°C 62.1°F16.7°C 88% 5.0 mph SSW8.0 kmh SSW 14.0 mph22.5 kmh 29.77 in1008.1 mb 0.00 in0.0 mm 0.00 in0.0 mm 0.00 in0.0 mm
02:50 AM 65.8°F18.8°C 62.1°F16.7°C 88% 5.0 mph SSW8.0 kmh SSW 13.0 mph20.9 kmh 29.77 in1008.1 mb 0.00 in0.0 mm 0.00 in0.0 mm 0.00 in0.0 mm
02:55 AM 65.8°F18.8°C 62.1°F16.7°C 88% 2.0 mph SSW3.2 kmh SSW 10.0 mph16.1 kmh 29.77 in1008.1 mb 0.00 in0.0 mm 0.00 in0.0 mm 0.00 in0.0 mm
03:00 AM 65.6°F18.7°C 61.9°F16.6°C 88% 5.0 mph SW8.0 kmh SW 13.0 mph20.9 kmh 29.77 in1008.1 mb 0.00 in0.0 mm 0.00 in0.0 mm 0.00 in0.0 mm
03:05 AM 65.8°F18.8°C 62.1°F16.7°C 88% 5.0 mph SSW8.0 kmh SSW 13.0 mph20.9 kmh 29.77 in1008.1 mb 0.00 in0.0 mm 0.00 in0.0 mm 0.00 in0.0 mm
03:10 AM 65.8°F18.8°C 62.1°F16.7°C 88% 4.0 mph SSW6.4 kmh SSW 11.0 mph17.7 kmh 29.77 in1008.1 mb 0.00 in0.0 mm 0.00 in0.0 mm 0.00 in0.0 mm
03:15 AM 65.8°F18.8°C 62.1°F16.7°C 88% 3.0 mph SSW4.8 kmh SSW 10.0 mph16.1 kmh 29.77 in1008.1 mb 0.00 in0.0 mm 0.00 in0.0 mm 0.00 in0.0 mm
03:20 AM 65.8°F18.8°C 62.1°F16.7°C 88% 5.0 mph SW8.0 kmh SW 16.0 mph25.7 kmh 29.77 in1008.1 mb 0.00 in0.0 mm 0.00 in0.0 mm 0.00 in0.0 mm
03:25 AM 65.8°F18.8°C 62.1°F16.7°C 88% 5.0 mph SW8.0 kmh SW 13.0 mph20.9 kmh 29.77 in1008.1 mb 0.00 in0.0 mm 0.00 in0.0 mm 0.00 in0.0 mm
03:30 AM 65.8°F18.8°C 62.1°F16.7°C 88% 3.0 mph SW4.8 kmh SW 8.0 mph12.9 kmh 29.76 in1007.8 mb 0.00 in0.0 mm 0.00 in0.0 mm 0.00 in0.0 mm
03:35 AM 66.0°F18.9°C 62.3°F16.8°C 88% 5.0 mph SW8.0 kmh SW 13.0 mph20.9 kmh 29.76 in1007.8 mb 0.00 in0.0 mm 0.00 in0.0 mm 0.00 in0.0 mm
03:40 AM 66.0°F18.9°C 62.3°F16.8°C 88% 6.0 mph SW9.7 kmh SW 15.0 mph24.1 kmh 29.76 in1007.8 mb 0.00 in0.0 mm 0.00 in0.0 mm 0.00 in0.0 mm
03:45 AM 66.0°F18.9°C 62.3°F16.8°C 88% 4.0 mph SSW6.4 kmh SSW 9.0 mph14.5 kmh 29.76 in1007.8 mb 0.00 in0.0 mm 0.00 in0.0 mm 0.00 in0.0 mm
03:50 AM 66.1°F18.9°C 62.4°F16.9°C 88% 7.0 mph SSW11.3 kmh SSW 13.0 mph20.9 kmh 29.76 in1007.8 mb 0.00 in0.0 mm 0.00 in0.0 mm 0.00 in0.0 mm
03:55 AM 66.1°F18.9°C 62.4°F16.9°C 88% 6.0 mph SW9.7 kmh SW 14.0 mph22.5 kmh 29.76 in1007.8 mb 0.00 in0.0 mm 0.00 in0.0 mm 0.00 in0.0 mm
04:00 AM 66.1°F18.9°C 62.4°F16.9°C 88% 6.0 mph SW9.7 kmh SW 17.0 mph27.4 kmh 29.76 in1007.8 mb 0.00 in0.0 mm 0.00 in0.0 mm 0.00 in0.0 mm
04:05 AM 66.1°F18.9°C 62.4°F16.9°C 88% 5.0 mph SSW8.0 kmh SSW 13.0 mph20.9 kmh 29.76 in1007.8 mb 0.00 in0.0 mm 0.00 in0.0 mm 0.00 in0.0 mm
04:10 AM 66.3°F19.1°C 62.6°F17.0°C 88% 4.0 mph SW6.4 kmh SW 19.0 mph30.6 kmh 29.76 in1007.8 mb 0.00 in0.0 mm 0.00 in0.0 mm 0.00 in0.0 mm
04:15 AM 66.3°F19.1°C 62.6°F17.0°C 88% 6.0 mph SW9.7 kmh SW 13.0 mph20.9 kmh 29.76 in1007.8 mb 0.00 in0.0 mm 0.00 in0.0 mm 0.00 in0.0 mm
04:20 AM 66.3°F19.1°C 62.6°F17.0°C 88% 7.0 mph SW11.3 kmh SW 11.0 mph17.7 kmh 29.76 in1007.8 mb 0.00 in0.0 mm 0.00 in0.0 mm 0.00 in0.0 mm
04:25 AM 66.3°F19.1°C 63.0°F17.2°C 89% 4.0 mph S6.4 kmh S 11.0 mph17.7 kmh 29.76 in1007.8 mb 0.01 in0.3 mm 0.12 in3.0 mm 0.01 in0.3 mm
04:30 AM 66.0°F18.9°C 62.7°F17.1°C 89% 5.0 mph SSW8.0 kmh SSW 13.0 mph20.9 kmh 29.75 in1007.5 mb 0.04 in1.0 mm 0.36 in9.1 mm 0.04 in1.0 mm
04:35 AM 65.8°F18.8°C 62.8°F17.1°C 90% 4.0 mph SW6.4 kmh SW 11.0 mph17.7 kmh 29.75 in1007.5 mb 0.05 in1.3 mm 0.12 in3.0 mm 0.05 in1.3 mm
04:40 AM 65.6°F18.7°C 62.6°F17.0°C 90% 4.0 mph SSW6.4 kmh SSW 10.0 mph16.1 kmh 29.75 in1007.5 mb 0.06 in1.5 mm 0.12 in3.0 mm 0.06 in1.5 mm
04:45 AM 65.5°F18.6°C 62.8°F17.1°C 91% 6.0 mph SW9.7 kmh SW 13.0 mph20.9 kmh 29.75 in1007.5 mb 0.06 in1.5 mm 0.00 in0.0 mm 0.06 in1.5 mm
04:50 AM 65.3°F18.5°C 62.6°F17.0°C 91% 4.0 mph SSW6.4 kmh SSW 12.0 mph19.3 kmh 29.75 in1007.5 mb 0.06 in1.5 mm 0.00 in0.0 mm 0.06 in1.5 mm
04:55 AM 65.2°F18.4°C 62.8°F17.1°C 92% 5.0 mph SSW8.0 kmh SSW 16.0 mph25.7 kmh 29.75 in1007.5 mb 0.06 in1.5 mm 0.00 in0.0 mm 0.06 in1.5 mm
05:00 AM 65.2°F18.4°C 62.8°F17.1°C 92% 6.0 mph SW9.7 kmh SW 15.0 mph24.1 kmh 29.75 in1007.5 mb 0.06 in1.5 mm 0.00 in0.0 mm 0.06 in1.5 mm
05:05 AM 65.0°F18.3°C 62.6°F17.0°C 92% 4.0 mph S6.4 kmh S 12.0 mph19.3 kmh 29.75 in1007.5 mb 0.06 in1.5 mm 0.00 in0.0 mm 0.06 in1.5 mm
05:10 AM 65.0°F18.3°C 62.6°F17.0°C 92% 3.0 mph S4.8 kmh S 10.0 mph16.1 kmh 29.75 in1007.5 mb 0.06 in1.5 mm 0.00 in0.0 mm 0.06 in1.5 mm
05:15 AM 65.0°F18.3°C 62.9°F17.2°C 93% 5.0 mph SSW8.0 kmh SSW 16.0 mph25.7 kmh 29.75 in1007.5 mb 0.06 in1.5 mm 0.00 in0.0 mm 0.06 in1.5 mm
05:20 AM 65.0°F18.3°C 62.9°F17.2°C 93% 5.0 mph SSW8.0 kmh SSW 11.0 mph17.7 kmh 29.75 in1007.5 mb 0.06 in1.5 mm 0.00 in0.0 mm 0.06 in1.5 mm
05:25 AM 65.0°F18.3°C 62.9°F17.2°C 93% 6.0 mph SSE9.7 kmh SSE 11.0 mph17.7 kmh 29.75 in1007.5 mb 0.05 in1.3 mm 0.00 in0.0 mm 0.06 in1.5 mm
05:30 AM 64.8°F18.2°C 62.7°F17.1°C 93% 4.0 mph S6.4 kmh S 10.0 mph16.1 kmh 29.74 in1007.1 mb 0.02 in0.5 mm 0.00 in0.0 mm 0.06 in1.5 mm
05:35 AM 64.8°F18.2°C 62.7°F17.1°C 93% 6.0 mph SW9.7 kmh SW 9.0 mph14.5 kmh 29.74 in1007.1 mb 0.01 in0.3 mm 0.00 in0.0 mm 0.06 in1.5 mm
05:40 AM 64.8°F18.2°C 62.7°F17.1°C 93% 6.0 mph SW9.7 kmh SW 14.0 mph22.5 kmh 29.74 in1007.1 mb 0.00 in0.0 mm 0.00 in0.0 mm 0.06 in1.5 mm
05:45 AM 65.0°F18.3°C 62.9°F17.2°C 93% 5.0 mph SW8.0 kmh SW 13.0 mph20.9 kmh 29.74 in1007.1 mb 0.00 in0.0 mm 0.00 in0.0 mm 0.06 in1.5 mm
05:50 AM 65.0°F18.3°C 62.9°F17.2°C 93% 4.0 mph SW6.4 kmh SW 11.0 mph17.7 kmh 29.74 in1007.1 mb 0.00 in0.0 mm 0.00 in0.0 mm 0.06 in1.5 mm
05:55 AM 65.0°F18.3°C 62.9°F17.2°C 93% 5.0 mph SSE8.0 kmh SSE 10.0 mph16.1 kmh 29.74 in1007.1 mb 0.00 in0.0 mm 0.00 in0.0 mm 0.06 in1.5 mm
06:00 AM 65.0°F18.3°C 62.9°F17.2°C 93% 4.0 mph SSW6.4 kmh SSW 10.0 mph16.1 kmh 29.74 in1007.1 mb 0.00 in0.0 mm 0.00 in0.0 mm 0.06 in1.5 mm
06:05 AM 65.0°F18.3°C 62.9°F17.2°C 93% 4.0 mph SW6.4 kmh SW 11.0 mph17.7 kmh 29.74 in1007.1 mb 0.00 in0.0 mm 0.00 in0.0 mm 0.06 in1.5 mm
06:10 AM 65.0°F18.3°C 62.9°F17.2°C 93% 4.0 mph SW6.4 kmh SW 9.0 mph14.5 kmh 29.74 in1007.1 mb 0.00 in0.0 mm 0.00 in0.0 mm 0.06 in1.5 mm
06:15 AM 65.0°F18.3°C 62.9°F17.2°C 93% 4.0 mph SSW6.4 kmh SSW 13.0 mph20.9 kmh 29.74 in1007.1 mb 0.00 in0.0 mm 0.00 in0.0 mm 0.06 in1.5 mm
06:20 AM 65.0°F18.3°C 62.9°F17.2°C 93% 6.0 mph SW9.7 kmh SW 13.0 mph20.9 kmh 29.74 in1007.1 mb 0.00 in0.0 mm 0.00 in0.0 mm 0.06 in1.5 mm
06:25 AM 65.2°F18.4°C 63.1°F17.3°C 93% 5.0 mph SW8.0 kmh SW 14.0 mph22.5 kmh 29.74 in1007.1 mb 0.00 in0.0 mm 0.00 in0.0 mm 0.06 in1.5 mm
06:30 AM 65.2°F18.4°C 63.1°F17.3°C 93% 6.0 mph SSW9.7 kmh SSW 14.0 mph22.5 kmh 29.73 in1006.8 mb 0.00 in0.0 mm 0.00 in0.0 mm 0.06 in1.5 mm
06:35 AM 65.2°F18.4°C 63.1°F17.3°C 93% 5.0 mph WSW8.0 kmh WSW 11.0 mph17.7 kmh 29.73 in1006.8 mb 0.00 in0.0 mm 0.00 in0.0 mm 0.06 in1.5 mm
06:40 AM 65.3°F18.5°C 63.2°F17.3°C 93% 7.0 mph SW11.3 kmh SW 14.0 mph22.5 kmh 29.73 in1006.8 mb 0.00 in0.0 mm 0.00 in0.0 mm 0.06 in1.5 mm
06:45 AM 65.5°F18.6°C 63.1°F17.3°C 92% 7.0 mph SSW11.3 kmh SSW 15.0 mph24.1 kmh 29.73 in1006.8 mb 0.00 in0.0 mm 0.00 in0.0 mm 0.06 in1.5 mm
06:50 AM 65.5°F18.6°C 63.1°F17.3°C 92% 6.0 mph SW9.7 kmh SW 13.0 mph20.9 kmh 29.73 in1006.8 mb 0.00 in0.0 mm 0.00 in0.0 mm 0.06 in1.5 mm
06:55 AM 65.6°F18.7°C 63.2°F17.3°C 92% 7.0 mph SW11.3 kmh SW 19.0 mph30.6 kmh 29.73 in1006.8 mb 0.00 in0.0 mm 0.00 in0.0 mm 0.06 in1.5 mm
07:00 AM 65.6°F18.7°C 63.2°F17.3°C 92% 6.0 mph SW9.7 kmh SW 15.0 mph24.1 kmh 29.73 in1006.8 mb 0.00 in0.0 mm 0.00 in0.0 mm 0.06 in1.5 mm
07:05 AM 65.6°F18.7°C 63.2°F17.3°C 92% 5.0 mph SSW8.0 kmh SSW 14.0 mph22.5 kmh 29.73 in1006.8 mb 0.00 in0.0 mm 0.00 in0.0 mm 0.06 in1.5 mm
07:10 AM 65.8°F18.8°C 63.4°F17.4°C 92% 6.0 mph SW9.7 kmh SW 12.0 mph19.3 kmh 29.73 in1006.8 mb 0.00 in0.0 mm 0.00 in0.0 mm 0.06 in1.5 mm
07:15 AM 65.8°F18.8°C 63.4°F17.4°C 92% 7.0 mph SSW11.3 kmh SSW 15.0 mph24.1 kmh 29.73 in1006.8 mb 0.00 in0.0 mm 0.00 in0.0 mm 0.06 in1.5 mm
07:20 AM 66.0°F18.9°C 63.6°F17.6°C 92% 8.0 mph SW12.9 kmh SW 16.0 mph25.7 kmh 29.73 in1006.8 mb 0.00 in0.0 mm 0.00 in0.0 mm 0.06 in1.5 mm
07:25 AM 66.0°F18.9°C 63.3°F17.4°C 91% 7.0 mph SW11.3 kmh SW 15.0 mph24.1 kmh 29.73 in1006.8 mb 0.00 in0.0 mm 0.00 in0.0 mm 0.06 in1.5 mm
07:30 AM 66.1°F18.9°C 63.4°F17.4°C 91% 4.0 mph SW6.4 kmh SW 13.0 mph20.9 kmh 29.73 in1006.8 mb 0.00 in0.0 mm 0.00 in0.0 mm 0.06 in1.5 mm
07:35 AM 66.1°F18.9°C 63.4°F17.4°C 91% 7.0 mph SSW11.3 kmh SSW 12.0 mph19.3 kmh 29.73 in1006.8 mb 0.00 in0.0 mm 0.00 in0.0 mm 0.06 in1.5 mm
07:40 AM 66.1°F18.9°C 63.4°F17.4°C 91% 3.0 mph SSW4.8 kmh SSW 9.0 mph14.5 kmh 29.73 in1006.8 mb 0.00 in0.0 mm 0.00 in0.0 mm 0.06 in1.5 mm
07:45 AM 66.3°F19.1°C 63.6°F17.6°C 91% 6.0 mph SW9.7 kmh SW 12.0 mph19.3 kmh 29.72 in1006.4 mb 0.00 in0.0 mm 0.00 in0.0 mm 0.06 in1.5 mm
07:50 AM 66.4°F19.1°C 63.7°F17.6°C 91% 5.0 mph SW8.0 kmh SW 10.0 mph16.1 kmh 29.72 in1006.4 mb 0.00 in0.0 mm 0.00 in0.0 mm 0.06 in1.5 mm
07:55 AM 66.4°F19.1°C 63.4°F17.4°C 90% 5.0 mph SW8.0 kmh SW 11.0 mph17.7 kmh 29.72 in1006.4 mb 0.00 in0.0 mm 0.00 in0.0 mm 0.06 in1.5 mm
08:00 AM 66.4°F19.1°C 63.4°F17.4°C 90% 5.0 mph S8.0 kmh S 14.0 mph22.5 kmh 29.70 in1005.8 mb 0.00 in0.0 mm 0.00 in0.0 mm 0.06 in1.5 mm
08:05 AM 66.6°F19.2°C 63.6°F17.6°C 90% 6.0 mph SW9.7 kmh SW 11.0 mph17.7 kmh 29.70 in1005.8 mb 0.00 in0.0 mm 0.00 in0.0 mm 0.06 in1.5 mm
08:10 AM 66.6°F19.2°C 63.6°F17.6°C 90% 5.0 mph SW8.0 kmh SW 16.0 mph25.7 kmh 29.70 in1005.8 mb 0.00 in0.0 mm 0.00 in0.0 mm 0.06 in1.5 mm
08:15 AM 66.6°F19.2°C 63.6°F17.6°C 90% 6.0 mph SW9.7 kmh SW 13.0 mph20.9 kmh 29.72 in1006.4 mb 0.00 in0.0 mm 0.00 in0.0 mm 0.06 in1.5 mm
08:20 AM 66.6°F19.2°C 63.6°F17.6°C 90% 8.0 mph SW12.9 kmh SW 17.0 mph27.4 kmh 29.72 in1006.4 mb 0.00 in0.0 mm 0.00 in0.0 mm 0.06 in1.5 mm
08:25 AM 66.6°F19.2°C 63.6°F17.6°C 90% 7.0 mph WSW11.3 kmh WSW 16.0 mph25.7 kmh 29.72 in1006.4 mb 0.00 in0.0 mm 0.00 in0.0 mm 0.06 in1.5 mm
08:30 AM 66.4°F19.1°C 63.4°F17.4°C 90% 5.0 mph SSW8.0 kmh SSW 10.0 mph16.1 kmh 29.72 in1006.4 mb 0.00 in0.0 mm 0.00 in0.0 mm 0.06 in1.5 mm
08:35 AM 66.4°F19.1°C 63.4°F17.4°C 90% 5.0 mph SW8.0 kmh SW 11.0 mph17.7 kmh 29.72 in1006.4 mb 0.00 in0.0 mm 0.00 in0.0 mm 0.06 in1.5 mm
08:40 AM 66.6°F19.2°C 63.6°F17.6°C 90% 6.0 mph SW9.7 kmh SW 11.0 mph17.7 kmh 29.72 in1006.4 mb 0.00 in0.0 mm 0.00 in0.0 mm 0.06 in1.5 mm
08:45 AM 66.6°F19.2°C 63.3°F17.4°C 89% 5.0 mph SW8.0 kmh SW 13.0 mph20.9 kmh 29.73 in1006.8 mb 0.00 in0.0 mm 0.00 in0.0 mm 0.06 in1.5 mm
08:50 AM 66.4°F19.1°C 63.1°F17.3°C 89% 5.0 mph SW8.0 kmh SW 9.0 mph14.5 kmh 29.73 in1006.8 mb 0.00 in0.0 mm 0.00 in0.0 mm 0.06 in1.5 mm
08:55 AM 66.4°F19.1°C 63.1°F17.3°C 89% 4.0 mph SW6.4 kmh SW 14.0 mph22.5 kmh 29.73 in1006.8 mb 0.00 in0.0 mm 0.00 in0.0 mm 0.06 in1.5 mm
09:00 AM 66.3°F19.1°C 63.3°F17.4°C 90% 5.0 mph S8.0 kmh S 13.0 mph20.9 kmh 29.73 in1006.8 mb 0.00 in0.0 mm 0.00 in0.0 mm 0.06 in1.5 mm
09:05 AM 66.1°F18.9°C 63.1°F17.3°C 90% 5.0 mph SW8.0 kmh SW 11.0 mph17.7 kmh 29.73 in1006.8 mb 0.00 in0.0 mm 0.00 in0.0 mm 0.06 in1.5 mm
09:10 AM 66.0°F18.9°C 63.0°F17.2°C 90% 4.0 mph SSW6.4 kmh SSW 10.0 mph16.1 kmh 29.73 in1006.8 mb 0.00 in0.0 mm 0.00 in0.0 mm 0.06 in1.5 mm
09:15 AM 65.8°F18.8°C 62.8°F17.1°C 90% 5.0 mph SSW8.0 kmh SSW 11.0 mph17.7 kmh 29.75 in1007.5 mb 0.00 in0.0 mm 0.00 in0.0 mm 0.06 in1.5 mm
09:20 AM 65.6°F18.7°C 62.6°F17.0°C 90% 4.0 mph SW6.4 kmh SW 9.0 mph14.5 kmh 29.75 in1007.5 mb 0.01 in0.3 mm 0.12 in3.0 mm 0.07 in1.8 mm
09:25 AM 65.5°F18.6°C 62.8°F17.1°C 91% 3.0 mph S4.8 kmh S 6.0 mph9.7 kmh 29.75 in1007.5 mb 0.01 in0.3 mm 0.00 in0.0 mm 0.07 in1.8 mm
09:30 AM 65.2°F18.4°C 62.5°F16.9°C 91% 3.0 mph SW4.8 kmh SW 11.0 mph17.7 kmh 29.75 in1007.5 mb 0.01 in0.3 mm 0.00 in0.0 mm 0.07 in1.8 mm
09:35 AM 65.0°F18.3°C 62.3°F16.8°C 91% 4.0 mph SW6.4 kmh SW 9.0 mph14.5 kmh 29.75 in1007.5 mb 0.01 in0.3 mm 0.00 in0.0 mm 0.07 in1.8 mm
09:40 AM 64.8°F18.2°C 62.4°F16.9°C 92% 3.0 mph WSW4.8 kmh WSW 9.0 mph14.5 kmh 29.75 in1007.5 mb 0.01 in0.3 mm 0.00 in0.0 mm 0.07 in1.8 mm
09:45 AM 64.7°F18.2°C 62.3°F16.8°C 92% 4.0 mph SW6.4 kmh SW 10.0 mph16.1 kmh 29.75 in1007.5 mb 0.01 in0.3 mm 0.00 in0.0 mm 0.07 in1.8 mm
09:50 AM 64.5°F18.1°C 62.1°F16.7°C 92% 3.0 mph SSW4.8 kmh SSW 10.0 mph16.1 kmh 29.75 in1007.5 mb 0.01 in0.3 mm 0.00 in0.0 mm 0.07 in1.8 mm
09:55 AM 64.5°F18.1°C 62.1°F16.7°C 92% 2.0 mph S3.2 kmh S 7.0 mph11.3 kmh 29.75 in1007.5 mb 0.01 in0.3 mm 0.00 in0.0 mm 0.07 in1.8 mm
10:00 AM 64.5°F18.1°C 62.1°F16.7°C 92% 3.0 mph SW4.8 kmh SW 7.0 mph11.3 kmh 29.76 in1007.8 mb 0.01 in0.3 mm 0.00 in0.0 mm 0.07 in1.8 mm
10:05 AM 64.5°F18.1°C 62.1°F16.7°C 92% 3.0 mph SW4.8 kmh SW 9.0 mph14.5 kmh 29.76 in1007.8 mb 0.01 in0.3 mm 0.00 in0.0 mm 0.07 in1.8 mm
10:10 AM 64.5°F18.1°C 62.4°F16.9°C 93% 3.0 mph SW4.8 kmh SW 7.0 mph11.3 kmh 29.76 in1007.8 mb 0.02 in0.5 mm 0.12 in3.0 mm 0.08 in2.0 mm
10:15 AM 64.5°F18.1°C 62.4°F16.9°C 93% 4.0 mph SSW6.4 kmh SSW 9.0 mph14.5 kmh 29.76 in1007.8 mb 0.02 in0.5 mm 0.00 in0.0 mm 0.08 in2.0 mm
10:20 AM 64.5°F18.1°C 62.4°F16.9°C 93% 5.0 mph SSW8.0 kmh SSW 14.0 mph22.5 kmh 29.76 in1007.8 mb 0.02 in0.5 mm 0.00 in0.0 mm 0.09 in2.3 mm
10:25 AM 64.5°F18.1°C 62.4°F16.9°C 93% 3.0 mph SSW4.8 kmh SSW 7.0 mph11.3 kmh 29.76 in1007.8 mb 0.04 in1.0 mm 0.24 in6.1 mm 0.11 in2.8 mm
10:30 AM 64.5°F18.1°C 62.4°F16.9°C 93% 3.0 mph SW4.8 kmh SW 7.0 mph11.3 kmh 29.77 in1008.1 mb 0.05 in1.3 mm 0.12 in3.0 mm 0.12 in3.0 mm
10:35 AM 64.5°F18.1°C 62.4°F16.9°C 93% 3.0 mph WSW4.8 kmh WSW 12.0 mph19.3 kmh 29.77 in1008.1 mb 0.06 in1.5 mm 0.12 in3.0 mm 0.13 in3.3 mm
10:40 AM 64.5°F18.1°C 62.4°F16.9°C 93% 2.0 mph SSW3.2 kmh SSW 8.0 mph12.9 kmh 29.77 in1008.1 mb 0.06 in1.5 mm 0.00 in0.0 mm 0.13 in3.3 mm
10:45 AM 64.7°F18.2°C 62.6°F17.0°C 93% 2.0 mph SW3.2 kmh SW 7.0 mph11.3 kmh 29.76 in1007.8 mb 0.06 in1.5 mm 0.00 in0.0 mm 0.13 in3.3 mm
10:50 AM 64.5°F18.1°C 62.4°F16.9°C 93% 2.0 mph SSW3.2 kmh SSW 7.0 mph11.3 kmh 29.76 in1007.8 mb 0.07 in1.8 mm 0.12 in3.0 mm 0.14 in3.6 mm
10:55 AM 64.7°F18.2°C 62.9°F17.2°C 94% 2.0 mph S3.2 kmh S 9.0 mph14.5 kmh 29.76 in1007.8 mb 0.07 in1.8 mm 0.00 in0.0 mm 0.14 in3.6 mm
11:00 AM 64.7°F18.2°C 62.9°F17.2°C 94% 4.0 mph SSW6.4 kmh SSW 12.0 mph19.3 kmh 29.76 in1007.8 mb 0.07 in1.8 mm 0.00 in0.0 mm 0.14 in3.6 mm
11:05 AM 64.7°F18.2°C 62.9°F17.2°C 94% 5.0 mph SW8.0 kmh SW 12.0 mph19.3 kmh 29.76 in1007.8 mb 0.07 in1.8 mm 0.00 in0.0 mm 0.14 in3.6 mm
11:10 AM 64.7°F18.2°C 62.9°F17.2°C 94% 6.0 mph SW9.7 kmh SW 13.0 mph20.9 kmh 29.76 in1007.8 mb 0.06 in1.5 mm 0.00 in0.0 mm 0.14 in3.6 mm
11:15 AM 64.7°F18.2°C 62.9°F17.2°C 94% 5.0 mph SW8.0 kmh SW 13.0 mph20.9 kmh 29.77 in1008.1 mb 0.06 in1.5 mm 0.00 in0.0 mm 0.14 in3.6 mm
11:20 AM 64.7°F18.2°C 62.9°F17.2°C 94% 2.0 mph SSW3.2 kmh SSW 8.0 mph12.9 kmh 29.77 in1008.1 mb 0.05 in1.3 mm 0.00 in0.0 mm 0.14 in3.6 mm
11:25 AM 64.7°F18.2°C 62.9°F17.2°C 94% 4.0 mph SW6.4 kmh SW 12.0 mph19.3 kmh 29.77 in1008.1 mb 0.04 in1.0 mm 0.00 in0.0 mm 0.15 in3.8 mm
11:30 AM 64.7°F18.2°C 62.9°F17.2°C 94% 3.0 mph SW4.8 kmh SW 9.0 mph14.5 kmh 29.78 in1008.5 mb 0.05 in1.3 mm 0.12 in3.0 mm 0.17 in4.3 mm
11:35 AM 64.7°F18.2°C 62.9°F17.2°C 94% 2.0 mph SSW3.2 kmh SSW 8.0 mph12.9 kmh 29.78 in1008.5 mb 0.05 in1.3 mm 0.00 in0.0 mm 0.18 in4.6 mm
11:40 AM 64.7°F18.2°C 63.2°F17.3°C 95% 2.0 mph SSW3.2 kmh SSW 7.0 mph11.3 kmh 29.78 in1008.5 mb 0.06 in1.5 mm 0.12 in3.0 mm 0.19 in4.8 mm
11:45 AM 64.7°F18.2°C 63.2°F17.3°C 95% 3.0 mph SW4.8 kmh SW 10.0 mph16.1 kmh 29.78 in1008.5 mb 0.06 in1.5 mm 0.00 in0.0 mm 0.19 in4.8 mm
11:50 AM 64.7°F18.2°C 63.2°F17.3°C 95% 4.0 mph SW6.4 kmh SW 10.0 mph16.1 kmh 29.78 in1008.5 mb 0.05 in1.3 mm 0.00 in0.0 mm 0.19 in4.8 mm
11:55 AM 64.7°F18.2°C 63.2°F17.3°C 95% 3.0 mph WSW4.8 kmh WSW 8.0 mph12.9 kmh 29.78 in1008.5 mb 0.05 in1.3 mm 0.00 in0.0 mm 0.19 in4.8 mm
12:00 PM 64.8°F18.2°C 63.3°F17.4°C 95% 2.0 mph SSW3.2 kmh SSW 9.0 mph14.5 kmh 29.79 in1008.8 mb 0.05 in1.3 mm 0.00 in0.0 mm 0.19 in4.8 mm
12:05 PM 64.8°F18.2°C 63.3°F17.4°C 95% 4.0 mph SW6.4 kmh SW 11.0 mph17.7 kmh 29.79 in1008.8 mb 0.05 in1.3 mm 0.00 in0.0 mm 0.19 in4.8 mm
12:10 PM 64.8°F18.2°C 63.3°F17.4°C 95% 4.0 mph SSW6.4 kmh SSW 10.0 mph16.1 kmh 29.79 in1008.8 mb 0.05 in1.3 mm 0.00 in0.0 mm 0.19 in4.8 mm
12:15 PM 65.0°F18.3°C 63.5°F17.5°C 95% 3.0 mph SSW4.8 kmh SSW 9.0 mph14.5 kmh 29.78 in1008.5 mb 0.05 in1.3 mm 0.00 in0.0 mm 0.19 in4.8 mm
12:20 PM 65.0°F18.3°C 63.5°F17.5°C 95% 5.0 mph SW8.0 kmh SW 9.0 mph14.5 kmh 29.78 in1008.5 mb 0.05 in1.3 mm 0.00 in0.0 mm 0.19 in4.8 mm
12:25 PM 65.2°F18.4°C 63.7°F17.6°C 95% 5.0 mph SW8.0 kmh SW 13.0 mph20.9 kmh 29.78 in1008.5 mb 0.04 in1.0 mm 0.00 in0.0 mm 0.19 in4.8 mm
12:30 PM 65.2°F18.4°C 63.7°F17.6°C 95% 3.0 mph SSW4.8 kmh SSW 7.0 mph11.3 kmh 29.79 in1008.8 mb 0.03 in0.8 mm 0.00 in0.0 mm 0.20 in5.1 mm
12:35 PM 65.2°F18.4°C 63.7°F17.6°C 95% 4.0 mph SW6.4 kmh SW 10.0 mph16.1 kmh 29.79 in1008.8 mb 0.02 in0.5 mm 0.00 in0.0 mm 0.20 in5.1 mm
12:40 PM 65.2°F18.4°C 63.7°F17.6°C 95% 4.0 mph SSW6.4 kmh SSW 10.0 mph16.1 kmh 29.79 in1008.8 mb 0.01 in0.3 mm 0.00 in0.0 mm 0.20 in5.1 mm
12:45 PM 65.2°F18.4°C 63.7°F17.6°C 95% 3.0 mph SW4.8 kmh SW 10.0 mph16.1 kmh 29.80 in1009.1 mb 0.01 in0.3 mm 0.00 in0.0 mm 0.20 in5.1 mm
12:50 PM 65.2°F18.4°C 63.7°F17.6°C 95% 3.0 mph SSW4.8 kmh SSW 9.0 mph14.5 kmh 29.80 in1009.1 mb 0.01 in0.3 mm 0.00 in0.0 mm 0.20 in5.1 mm
12:55 PM 65.3°F18.5°C 63.8°F17.7°C 95% 3.0 mph SW4.8 kmh SW 10.0 mph16.1 kmh 29.80 in1009.1 mb 0.01 in0.3 mm 0.00 in0.0 mm 0.20 in5.1 mm
01:00 PM 65.6°F18.7°C 64.1°F17.8°C 95% 4.0 mph SW6.4 kmh SW 9.0 mph14.5 kmh 29.80 in1009.1 mb 0.01 in0.3 mm 0.00 in0.0 mm 0.20 in5.1 mm
01:05 PM 65.8°F18.8°C 64.3°F17.9°C 95% 4.0 mph SSW6.4 kmh SSW 10.0 mph16.1 kmh 29.80 in1009.1 mb 0.01 in0.3 mm 0.00 in0.0 mm 0.20 in5.1 mm
01:10 PM 66.0°F18.9°C 64.5°F18.1°C 95% 5.0 mph SW8.0 kmh SW 10.0 mph16.1 kmh 29.80 in1009.1 mb 0.01 in0.3 mm 0.00 in0.0 mm 0.20 in5.1 mm
01:15 PM 66.0°F18.9°C 64.5°F18.1°C 95% 5.0 mph SW8.0 kmh SW 13.0 mph20.9 kmh 29.80 in1009.1 mb 0.01 in0.3 mm 0.00 in0.0 mm 0.20 in5.1 mm
01:20 PM 66.0°F18.9°C 64.5°F18.1°C 95% 4.0 mph SSW6.4 kmh SSW 13.0 mph20.9 kmh 29.80 in1009.1 mb 0.01 in0.3 mm 0.00 in0.0 mm 0.20 in5.1 mm
01:25 PM 66.0°F18.9°C 64.5°F18.1°C 95% 6.0 mph SW9.7 kmh SW 12.0 mph19.3 kmh 29.80 in1009.1 mb 0.01 in0.3 mm 0.00 in0.0 mm 0.20 in5.1 mm
01:30 PM 66.1°F18.9°C 64.6°F18.1°C 95% 5.0 mph SW8.0 kmh SW 11.0 mph17.7 kmh 29.81 in1009.5 mb 0.00 in0.0 mm 0.00 in0.0 mm 0.20 in5.1 mm
01:35 PM 66.3°F19.1°C 64.5°F18.1°C 94% 5.0 mph SSW8.0 kmh SSW 13.0 mph20.9 kmh 29.81 in1009.5 mb 0.00 in0.0 mm 0.00 in0.0 mm 0.20 in5.1 mm
01:40 PM 66.1°F18.9°C 64.3°F17.9°C 94% 7.0 mph SW11.3 kmh SW 14.0 mph22.5 kmh 29.81 in1009.5 mb 0.00 in0.0 mm 0.00 in0.0 mm 0.20 in5.1 mm
01:45 PM 66.0°F18.9°C 64.2°F17.9°C 94% 6.0 mph SW9.7 kmh SW 15.0 mph24.1 kmh 29.83 in1010.2 mb 0.00 in0.0 mm 0.00 in0.0 mm 0.20 in5.1 mm
01:50 PM 66.0°F18.9°C 64.2°F17.9°C 94% 5.0 mph SW8.0 kmh SW 13.0 mph20.9 kmh 29.83 in1010.2 mb 0.00 in0.0 mm 0.00 in0.0 mm 0.20 in5.1 mm
01:55 PM 65.8°F18.8°C 63.7°F17.6°C 93% 7.0 mph SW11.3 kmh SW 16.0 mph25.7 kmh 29.83 in1010.2 mb 0.00 in0.0 mm 0.00 in0.0 mm 0.20 in5.1 mm
02:00 PM 65.6°F18.7°C 63.5°F17.5°C 93% 8.0 mph SW12.9 kmh SW 21.0 mph33.8 kmh 29.84 in1010.5 mb 0.01 in0.3 mm 0.01 in0.3 mm 0.21 in5.3 mm
02:05 PM 65.6°F18.7°C 63.5°F17.5°C 93% 8.0 mph SW12.9 kmh SW 14.0 mph22.5 kmh 29.84 in1010.5 mb 0.03 in0.8 mm 0.24 in6.1 mm 0.23 in5.8 mm
02:10 PM 65.5°F18.6°C 63.4°F17.4°C 93% 3.0 mph SSW4.8 kmh SSW 8.0 mph12.9 kmh 29.84 in1010.5 mb 0.05 in1.3 mm 0.24 in6.1 mm 0.25 in6.4 mm
02:15 PM 65.5°F18.6°C 63.4°F17.4°C 93% 7.0 mph SW11.3 kmh SW 13.0 mph20.9 kmh 29.86 in1011.2 mb 0.06 in1.5 mm 0.12 in3.0 mm 0.26 in6.6 mm
02:20 PM 65.3°F18.5°C 63.5°F17.5°C 94% 5.0 mph SW8.0 kmh SW 11.0 mph17.7 kmh 29.86 in1011.2 mb 0.10 in2.5 mm 0.48 in12.2 mm 0.30 in7.6 mm
02:25 PM 65.3°F18.5°C 63.5°F17.5°C 94% 3.0 mph SW4.8 kmh SW 8.0 mph12.9 kmh 29.86 in1011.2 mb 0.11 in2.8 mm 0.12 in3.0 mm 0.31 in7.9 mm
02:30 PM 65.2°F18.4°C 63.4°F17.4°C 94% 5.0 mph SW8.0 kmh SW 12.0 mph19.3 kmh 29.85 in1010.8 mb 0.11 in2.8 mm 0.00 in0.0 mm 0.31 in7.9 mm
02:35 PM 65.2°F18.4°C 63.4°F17.4°C 94% 5.0 mph SW8.0 kmh SW 10.0 mph16.1 kmh 29.85 in1010.8 mb 0.12 in3.0 mm 0.12 in3.0 mm 0.32 in8.1 mm
02:40 PM 65.2°F18.4°C 63.4°F17.4°C 94% 3.0 mph SW4.8 kmh SW 8.0 mph12.9 kmh 29.85 in1010.8 mb 0.12 in3.0 mm 0.00 in0.0 mm 0.32 in8.1 mm
02:45 PM 65.2°F18.4°C 63.4°F17.4°C 94% 4.0 mph SW6.4 kmh SW 8.0 mph12.9 kmh 29.85 in1010.8 mb 0.12 in3.0 mm 0.00 in0.0 mm 0.32 in8.1 mm
02:50 PM 65.3°F18.5°C 63.5°F17.5°C 94% 3.0 mph SW4.8 kmh SW 12.0 mph19.3 kmh 29.85 in1010.8 mb 0.12 in3.0 mm 0.00 in0.0 mm 0.32 in8.1 mm
02:55 PM 65.3°F18.5°C 63.5°F17.5°C 94% 3.0 mph SW4.8 kmh SW 9.0 mph14.5 kmh 29.85 in1010.8 mb 0.12 in3.0 mm 0.00 in0.0 mm 0.32 in8.1 mm
03:00 PM 65.5°F18.6°C 63.7°F17.6°C 94% 6.0 mph SW9.7 kmh SW 13.0 mph20.9 kmh 29.86 in1011.2 mb 0.11 in2.8 mm 0.00 in0.0 mm 0.32 in8.1 mm
03:05 PM 65.5°F18.6°C 63.7°F17.6°C 94% 4.0 mph SW6.4 kmh SW 15.0 mph24.1 kmh 29.86 in1011.2 mb 0.10 in2.5 mm 0.00 in0.0 mm 0.33 in8.4 mm
03:10 PM 65.6°F18.7°C 63.8°F17.7°C 94% 5.0 mph S8.0 kmh S 12.0 mph19.3 kmh 29.86 in1011.2 mb 0.08 in2.0 mm 0.00 in0.0 mm 0.33 in8.4 mm
03:15 PM 66.0°F18.9°C 64.2°F17.9°C 94% 5.0 mph SSE8.0 kmh SSE 9.0 mph14.5 kmh 29.85 in1010.8 mb 0.07 in1.8 mm 0.00 in0.0 mm 0.33 in8.4 mm
03:20 PM 66.0°F18.9°C 64.2°F17.9°C 94% 5.0 mph SSW8.0 kmh SSW 11.0 mph17.7 kmh 29.85 in1010.8 mb 0.03 in0.8 mm 0.00 in0.0 mm 0.33 in8.4 mm
03:25 PM 66.1°F18.9°C 64.3°F17.9°C 94% 5.0 mph SW8.0 kmh SW 12.0 mph19.3 kmh 29.85 in1010.8 mb 0.02 in0.5 mm 0.00 in0.0 mm 0.33 in8.4 mm
03:30 PM 66.1°F18.9°C 64.3°F17.9°C 94% 3.0 mph SW4.8 kmh SW 9.0 mph14.5 kmh 29.85 in1010.8 mb 0.02 in0.5 mm 0.00 in0.0 mm 0.33 in8.4 mm
03:35 PM 66.3°F19.1°C 64.5°F18.1°C 94% 5.0 mph SSW8.0 kmh SSW 10.0 mph16.1 kmh 29.85 in1010.8 mb 0.01 in0.3 mm 0.00 in0.0 mm 0.33 in8.4 mm
03:40 PM 66.6°F19.2°C 64.8°F18.2°C 94% 7.0 mph SW11.3 kmh SW 16.0 mph25.7 kmh 29.85 in1010.8 mb 0.01 in0.3 mm 0.00 in0.0 mm 0.33 in8.4 mm
03:45 PM 66.8°F19.3°C 65.0°F18.3°C 94% 7.0 mph SW11.3 kmh SW 16.0 mph25.7 kmh 29.85 in1010.8 mb 0.01 in0.3 mm 0.00 in0.0 mm 0.33 in8.4 mm
03:50 PM 66.9°F19.4°C 65.1°F18.4°C 94% 6.0 mph SSW9.7 kmh SSW 11.0 mph17.7 kmh 29.85 in1010.8 mb 0.01 in0.3 mm 0.00 in0.0 mm 0.33 in8.4 mm
03:55 PM 67.1°F19.5°C 65.3°F18.5°C 94% 8.0 mph SW12.9 kmh SW 17.0 mph27.4 kmh 29.85 in1010.8 mb 0.01 in0.3 mm 0.00 in0.0 mm 0.33 in8.4 mm
04:00 PM 67.3°F19.6°C 65.2°F18.4°C 93% 9.0 mph SW14.5 kmh SW 20.0 mph32.2 kmh 29.85 in1010.8 mb 0.01 in0.3 mm 0.00 in0.0 mm 0.33 in8.4 mm
04:05 PM 67.4°F19.7°C 65.3°F18.5°C 93% 8.0 mph WSW12.9 kmh WSW 16.0 mph25.7 kmh 29.85 in1010.8 mb 0.00 in0.0 mm 0.00 in0.0 mm 0.33 in8.4 mm
04:10 PM 67.6°F19.8°C 65.2°F18.4°C 92% 8.0 mph SW12.9 kmh SW 21.0 mph33.8 kmh 29.85 in1010.8 mb 0.00 in0.0 mm 0.00 in0.0 mm 0.33 in8.4 mm
04:15 PM 67.8°F19.9°C 65.4°F18.6°C 92% 8.0 mph SW12.9 kmh SW 16.0 mph25.7 kmh 29.85 in1010.8 mb 0.00 in0.0 mm 0.00 in0.0 mm 0.33 in8.4 mm
04:20 PM 68.1°F20.1°C 65.4°F18.6°C 91% 6.0 mph S9.7 kmh S 14.0 mph22.5 kmh 29.85 in1010.8 mb 0.00 in0.0 mm 0.00 in0.0 mm 0.33 in8.4 mm
04:25 PM 68.3°F20.2°C 65.2°F18.4°C 90% 8.0 mph S12.9 kmh S 20.0 mph32.2 kmh 29.85 in1010.8 mb 0.00 in0.0 mm 0.00 in0.0 mm 0.33 in8.4 mm
04:30 PM 68.6°F20.3°C 65.5°F18.6°C 90% 7.0 mph SW11.3 kmh SW 19.0 mph30.6 kmh 29.85 in1010.8 mb 0.00 in0.0 mm 0.00 in0.0 mm 0.33 in8.4 mm
04:35 PM 68.6°F20.3°C 64.9°F18.3°C 88% 9.0 mph SW14.5 kmh SW 20.0 mph32.2 kmh 29.85 in1010.8 mb 0.00 in0.0 mm 0.00 in0.0 mm 0.33 in8.4 mm
04:40 PM 68.8°F20.4°C 65.1°F18.4°C 88% 6.0 mph SW9.7 kmh SW 12.0 mph19.3 kmh 29.85 in1010.8 mb 0.00 in0.0 mm 0.00 in0.0 mm 0.33 in8.4 mm
04:45 PM 68.9°F20.5°C 64.9°F18.3°C 87% 9.0 mph SW14.5 kmh SW 19.0 mph30.6 kmh 29.85 in1010.8 mb 0.00 in0.0 mm 0.00 in0.0 mm 0.33 in8.4 mm
04:50 PM 69.1°F20.6°C 64.7°F18.2°C 86% 9.0 mph SW14.5 kmh SW 24.0 mph38.6 kmh 29.85 in1010.8 mb 0.00 in0.0 mm 0.00 in0.0 mm 0.33 in8.4 mm
04:55 PM 69.3°F20.7°C 64.6°F18.1°C 85% 7.0 mph SW11.3 kmh SW 18.0 mph29.0 kmh 29.85 in1010.8 mb 0.00 in0.0 mm 0.00 in0.0 mm 0.33 in8.4 mm
05:00 PM 69.3°F20.7°C 64.6°F18.1°C 85% 8.0 mph SW12.9 kmh SW 19.0 mph30.6 kmh 29.85 in1010.8 mb 0.00 in0.0 mm 0.00 in0.0 mm 0.33 in8.4 mm
05:05 PM 69.3°F20.7°C 64.9°F18.3°C 86% 9.0 mph SW14.5 kmh SW 17.0 mph27.4 kmh 29.85 in1010.8 mb 0.00 in0.0 mm 0.00 in0.0 mm 0.33 in8.4 mm
05:10 PM 69.3°F20.7°C 64.9°F18.3°C 86% 7.0 mph WSW11.3 kmh WSW 20.0 mph32.2 kmh 29.85 in1010.8 mb 0.01 in0.3 mm 0.12 in3.0 mm 0.34 in8.6 mm
05:15 PM 69.6°F20.9°C 64.9°F18.3°C 85% 9.0 mph SW14.5 kmh SW 19.0 mph30.6 kmh 29.85 in1010.8 mb 0.01 in0.3 mm 0.00 in0.0 mm 0.34 in8.6 mm
05:20 PM 69.6°F20.9°C 64.5°F18.1°C 84% 10.0 mph SW16.1 kmh SW 20.0 mph32.2 kmh 29.85 in1010.8 mb 0.01 in0.3 mm 0.00 in0.0 mm 0.34 in8.6 mm
05:25 PM 69.8°F21.0°C 64.7°F18.2°C 84% 9.0 mph SW14.5 kmh SW 17.0 mph27.4 kmh 29.85 in1010.8 mb 0.01 in0.3 mm 0.00 in0.0 mm 0.34 in8.6 mm
05:30 PM 69.8°F21.0°C 64.7°F18.2°C 84% 7.0 mph S11.3 kmh S 20.0 mph32.2 kmh 29.85 in1010.8 mb 0.01 in0.3 mm 0.00 in0.0 mm 0.34 in8.6 mm
05:35 PM 69.6°F20.9°C 64.2°F17.9°C 83% 10.0 mph SW16.1 kmh SW 18.0 mph29.0 kmh 29.85 in1010.8 mb 0.01 in0.3 mm 0.00 in0.0 mm 0.34 in8.6 mm
05:40 PM 69.4°F20.8°C 64.3°F17.9°C 84% 10.0 mph WSW16.1 kmh WSW 23.0 mph37.0 kmh 29.85 in1010.8 mb 0.01 in0.3 mm 0.00 in0.0 mm 0.34 in8.6 mm
05:45 PM 69.4°F20.8°C 64.3°F17.9°C 84% 9.0 mph SW14.5 kmh SW 21.0 mph33.8 kmh 29.85 in1010.8 mb 0.01 in0.3 mm 0.00 in0.0 mm 0.34 in8.6 mm
05:50 PM 69.4°F20.8°C 64.0°F17.8°C 83% 9.0 mph SSW14.5 kmh SSW 17.0 mph27.4 kmh 29.85 in1010.8 mb 0.01 in0.3 mm 0.00 in0.0 mm 0.34 in8.6 mm
05:55 PM 69.6°F20.9°C 64.2°F17.9°C 83% 9.0 mph SW14.5 kmh SW 27.0 mph43.5 kmh 29.85 in1010.8 mb 0.01 in0.3 mm 0.00 in0.0 mm 0.34 in8.6 mm
06:00 PM 69.6°F20.9°C 64.5°F18.1°C 84% 10.0 mph SSW16.1 kmh SSW 22.0 mph35.4 kmh 29.84 in1010.5 mb 0.01 in0.3 mm 0.00 in0.0 mm 0.34 in8.6 mm
06:05 PM 69.8°F21.0°C 64.7°F18.2°C 84% 8.0 mph WSW12.9 kmh WSW 19.0 mph30.6 kmh 29.84 in1010.5 mb 0.01 in0.3 mm 0.00 in0.0 mm 0.34 in8.6 mm
06:10 PM 69.8°F21.0°C 64.4°F18.0°C 83% 7.0 mph SW11.3 kmh SW 20.0 mph32.2 kmh 29.84 in1010.5 mb 0.00 in0.0 mm 0.00 in0.0 mm 0.34 in8.6 mm
06:15 PM 69.6°F20.9°C 64.2°F17.9°C 83% 9.0 mph SW14.5 kmh SW 19.0 mph30.6 kmh 29.84 in1010.5 mb 0.00 in0.0 mm 0.00 in0.0 mm 0.34 in8.6 mm
06:20 PM 69.6°F20.9°C 63.9°F17.7°C 82% 9.0 mph SSW14.5 kmh SSW 18.0 mph29.0 kmh 29.84 in1010.5 mb 0.00 in0.0 mm 0.00 in0.0 mm 0.34 in8.6 mm
06:25 PM 69.6°F20.9°C 64.2°F17.9°C 83% 9.0 mph SW14.5 kmh SW 20.0 mph32.2 kmh 29.84 in1010.5 mb 0.00 in0.0 mm 0.00 in0.0 mm 0.34 in8.6 mm
06:30 PM 69.8°F21.0°C 64.0°F17.8°C 82% 9.0 mph SSW14.5 kmh SSW 22.0 mph35.4 kmh 29.83 in1010.2 mb 0.00 in0.0 mm 0.00 in0.0 mm 0.34 in8.6 mm
06:35 PM 70.3°F21.3°C 64.2°F17.9°C 81% 7.0 mph SW11.3 kmh SW 15.0 mph24.1 kmh 29.83 in1010.2 mb 0.00 in0.0 mm 0.00 in0.0 mm 0.34 in8.6 mm
06:40 PM 70.4°F21.3°C 63.2°F17.3°C 78% 10.0 mph SW16.1 kmh SW 19.0 mph30.6 kmh 29.83 in1010.2 mb 0.00 in0.0 mm 0.00 in0.0 mm 0.34 in8.6 mm
06:45 PM 70.6°F21.4°C 63.0°F17.2°C 77% 11.0 mph SW17.7 kmh SW 29.0 mph46.7 kmh 29.83 in1010.2 mb 0.00 in0.0 mm 0.00 in0.0 mm 0.34 in8.6 mm
06:50 PM 70.4°F21.3°C 61.7°F16.5°C 74% 13.0 mph SW20.9 kmh SW 29.0 mph46.7 kmh 29.83 in1010.2 mb 0.00 in0.0 mm 0.00 in0.0 mm 0.34 in8.6 mm
06:55 PM 70.4°F21.3°C 61.7°F16.5°C 74% 11.0 mph SW17.7 kmh SW 26.0 mph41.8 kmh 29.83 in1010.2 mb 0.00 in0.0 mm 0.00 in0.0 mm 0.34 in8.6 mm
07:00 PM 70.4°F21.3°C 61.7°F16.5°C 74% 12.0 mph SW19.3 kmh SW 22.0 mph35.4 kmh 29.82 in1009.8 mb 0.00 in0.0 mm 0.00 in0.0 mm 0.34 in8.6 mm
07:05 PM 70.4°F21.3°C 62.1°F16.7°C 75% 9.0 mph SSW14.5 kmh SSW 21.0 mph33.8 kmh 29.82 in1009.8 mb 0.00 in0.0 mm 0.00 in0.0 mm 0.34 in8.6 mm
07:10 PM 70.3°F21.3°C 62.4°F16.9°C 76% 11.0 mph SW17.7 kmh SW 28.0 mph45.1 kmh 29.82 in1009.8 mb 0.00 in0.0 mm 0.00 in0.0 mm 0.34 in8.6 mm
07:15 PM 69.9°F21.1°C 62.4°F16.9°C 77% 9.0 mph SW14.5 kmh SW 18.0 mph29.0 kmh 29.83 in1010.2 mb 0.00 in0.0 mm 0.00 in0.0 mm 0.34 in8.6 mm
07:20 PM 69.8°F21.0°C 62.6°F17.0°C 78% 11.0 mph SW17.7 kmh SW 24.0 mph38.6 kmh 29.83 in1010.2 mb 0.00 in0.0 mm 0.00 in0.0 mm 0.34 in8.6 mm
07:25 PM 69.3°F20.7°C 62.1°F16.7°C 78% 10.0 mph WSW16.1 kmh WSW 23.0 mph37.0 kmh 29.83 in1010.2 mb 0.00 in0.0 mm 0.00 in0.0 mm 0.34 in8.6 mm
07:30 PM 68.9°F20.5°C 62.5°F16.9°C 80% 7.0 mph SW11.3 kmh SW 16.0 mph25.7 kmh 29.83 in1010.2 mb 0.00 in0.0 mm 0.00 in0.0 mm 0.34 in8.6 mm
07:35 PM 68.8°F20.4°C 62.4°F16.9°C 80% 8.0 mph SW12.9 kmh SW 15.0 mph24.1 kmh 29.83 in1010.2 mb 0.00 in0.0 mm 0.00 in0.0 mm 0.34 in8.6 mm
07:40 PM 68.6°F20.3°C 62.5°F16.9°C 81% 8.0 mph SW12.9 kmh SW 18.0 mph29.0 kmh 29.83 in1010.2 mb 0.00 in0.0 mm 0.00 in0.0 mm 0.34 in8.6 mm
07:45 PM 68.4°F20.2°C 62.3°F16.8°C 81% 7.0 mph SW11.3 kmh SW 17.0 mph27.4 kmh 29.80 in1009.1 mb 0.00 in0.0 mm 0.00 in0.0 mm 0.34 in8.6 mm
07:50 PM 68.3°F20.2°C 62.6°F17.0°C 82% 7.0 mph SW11.3 kmh SW 12.0 mph19.3 kmh 29.80 in1009.1 mb 0.00 in0.0 mm 0.00 in0.0 mm 0.34 in8.6 mm
07:55 PM 68.3°F20.2°C 62.6°F17.0°C 82% 7.0 mph SW11.3 kmh SW 13.0 mph20.9 kmh 29.80 in1009.1 mb 0.00 in0.0 mm 0.00 in0.0 mm 0.34 in8.6 mm
08:00 PM 68.4°F20.2°C 62.7°F17.1°C 82% 7.0 mph SSW11.3 kmh SSW 25.0 mph40.2 kmh 29.83 in1010.2 mb 0.00 in0.0 mm 0.00 in0.0 mm 0.34 in8.6 mm
08:05 PM 68.6°F20.3°C 62.5°F16.9°C 81% 10.0 mph SW16.1 kmh SW 21.0 mph33.8 kmh 29.83 in1010.2 mb 0.00 in0.0 mm 0.00 in0.0 mm 0.34 in8.6 mm
08:10 PM 68.8°F20.4°C 62.4°F16.9°C 80% 7.0 mph SW11.3 kmh SW 22.0 mph35.4 kmh 29.83 in1010.2 mb 0.00 in0.0 mm 0.00 in0.0 mm 0.34 in8.6 mm
08:15 PM 68.8°F20.4°C 62.0°F16.7°C 79% 7.0 mph SW11.3 kmh SW 16.0 mph25.7 kmh 29.83 in1010.2 mb 0.00 in0.0 mm 0.00 in0.0 mm 0.34 in8.6 mm
08:20 PM 68.8°F20.4°C 61.7°F16.5°C 78% 8.0 mph SW12.9 kmh SW 18.0 mph29.0 kmh 29.83 in1010.2 mb 0.00 in0.0 mm 0.00 in0.0 mm 0.34 in8.6 mm
08:25 PM 68.6°F20.3°C 61.5°F16.4°C 78% 10.0 mph SW16.1 kmh SW 19.0 mph30.6 kmh 29.83 in1010.2 mb 0.00 in0.0 mm 0.00 in0.0 mm 0.34 in8.6 mm
08:30 PM 68.8°F20.4°C 61.7°F16.5°C 78% 8.0 mph SW12.9 kmh SW 18.0 mph29.0 kmh 29.84 in1010.5 mb 0.00 in0.0 mm 0.00 in0.0 mm 0.34 in8.6 mm
08:35 PM 68.9°F20.5°C 61.7°F16.5°C 78% 8.0 mph SW12.9 kmh SW 17.0 mph27.4 kmh 29.84 in1010.5 mb 0.00 in0.0 mm 0.00 in0.0 mm 0.34 in8.6 mm
08:40 PM 69.1°F20.6°C 61.9°F16.6°C 78% 7.0 mph SW11.3 kmh SW 15.0 mph24.1 kmh 29.84 in1010.5 mb 0.00 in0.0 mm 0.00 in0.0 mm 0.34 in8.6 mm
08:45 PM 69.1°F20.6°C 62.3°F16.8°C 79% 5.0 mph SW8.0 kmh SW 13.0 mph20.9 kmh 29.84 in1010.5 mb 0.00 in0.0 mm 0.00 in0.0 mm 0.34 in8.6 mm
08:50 PM 68.9°F20.5°C 62.1°F16.7°C 79% 10.0 mph WSW16.1 kmh WSW 19.0 mph30.6 kmh 29.84 in1010.5 mb 0.00 in0.0 mm 0.00 in0.0 mm 0.34 in8.6 mm
08:55 PM 68.9°F20.5°C 62.5°F16.9°C 80% 10.0 mph SW16.1 kmh SW 19.0 mph30.6 kmh 29.84 in1010.5 mb 0.00 in0.0 mm 0.00 in0.0 mm 0.34 in8.6 mm
09:00 PM 68.8°F20.4°C 62.7°F17.1°C 81% 9.0 mph WSW14.5 kmh WSW 17.0 mph27.4 kmh 29.85 in1010.8 mb 0.00 in0.0 mm 0.00 in0.0 mm 0.34 in8.6 mm
09:05 PM 68.6°F20.3°C 62.9°F17.2°C 82% 10.0 mph SW16.1 kmh SW 24.0 mph38.6 kmh 29.85 in1010.8 mb 0.00 in0.0 mm 0.00 in0.0 mm 0.34 in8.6 mm
09:10 PM 68.4°F20.2°C 63.0°F17.2°C 83% 9.0 mph SSW14.5 kmh SSW 21.0 mph33.8 kmh 29.85 in1010.8 mb 0.00 in0.0 mm 0.00 in0.0 mm 0.34 in8.6 mm
09:15 PM 68.3°F20.2°C 62.9°F17.2°C 83% 9.0 mph SW14.5 kmh SW 22.0 mph35.4 kmh 29.86 in1011.2 mb 0.00 in0.0 mm 0.00 in0.0 mm 0.34 in8.6 mm
09:20 PM 68.1°F20.1°C 62.7°F17.1°C 83% 11.0 mph WSW17.7 kmh WSW 22.0 mph35.4 kmh 29.86 in1011.2 mb 0.00 in0.0 mm 0.00 in0.0 mm 0.34 in8.6 mm
09:25 PM 68.1°F20.1°C 62.7°F17.1°C 83% 8.0 mph SW12.9 kmh SW 19.0 mph30.6 kmh 29.86 in1011.2 mb 0.00 in0.0 mm 0.00 in0.0 mm 0.34 in8.6 mm
09:30 PM 67.9°F19.9°C 62.2°F16.8°C 82% 11.0 mph SW17.7 kmh SW 18.0 mph29.0 kmh 29.88 in1011.9 mb 0.00 in0.0 mm 0.00 in0.0 mm 0.34 in8.6 mm
09:35 PM 67.8°F19.9°C 62.1°F16.7°C 82% 7.0 mph SW11.3 kmh SW 16.0 mph25.7 kmh 29.88 in1011.9 mb 0.00 in0.0 mm 0.00 in0.0 mm 0.34 in8.6 mm
09:40 PM 67.6°F19.8°C 61.9°F16.6°C 82% 8.0 mph SW12.9 kmh SW 20.0 mph32.2 kmh 29.88 in1011.9 mb 0.00 in0.0 mm 0.00 in0.0 mm 0.34 in8.6 mm
09:45 PM 67.4°F19.7°C 61.7°F16.5°C 82% 10.0 mph SW16.1 kmh SW 25.0 mph40.2 kmh 29.88 in1011.9 mb 0.00 in0.0 mm 0.00 in0.0 mm 0.34 in8.6 mm
09:50 PM 67.1°F19.5°C 61.8°F16.6°C 83% 9.0 mph SW14.5 kmh SW 22.0 mph35.4 kmh 29.88 in1011.9 mb 0.00 in0.0 mm 0.00 in0.0 mm 0.34 in8.6 mm
09:55 PM 66.9°F19.4°C 61.9°F16.6°C 84% 7.0 mph WSW11.3 kmh WSW 15.0 mph24.1 kmh 29.88 in1011.9 mb 0.00 in0.0 mm 0.00 in0.0 mm 0.34 in8.6 mm
10:00 PM 66.6°F19.2°C 61.9°F16.6°C 85% 9.0 mph SW14.5 kmh SW 17.0 mph27.4 kmh 29.89 in1012.2 mb 0.00 in0.0 mm 0.00 in0.0 mm 0.34 in8.6 mm
10:05 PM 66.4°F19.1°C 62.1°F16.7°C 86% 6.0 mph SSW9.7 kmh SSW 17.0 mph27.4 kmh 29.89 in1012.2 mb 0.00 in0.0 mm 0.00 in0.0 mm 0.34 in8.6 mm
10:10 PM 66.1°F18.9°C 61.8°F16.6°C 86% 5.0 mph SSW8.0 kmh SSW 17.0 mph27.4 kmh 29.89 in1012.2 mb 0.00 in0.0 mm 0.00 in0.0 mm 0.34 in8.6 mm
10:15 PM 66.0°F18.9°C 62.0°F16.7°C 87% 6.0 mph SW9.7 kmh SW 18.0 mph29.0 kmh 29.88 in1011.9 mb 0.01 in0.3 mm 0.12 in3.0 mm 0.35 in8.9 mm
10:20 PM 65.6°F18.7°C 61.9°F16.6°C 88% 6.0 mph SSW9.7 kmh SSW 14.0 mph22.5 kmh 29.88 in1011.9 mb 0.01 in0.3 mm 0.00 in0.0 mm 0.35 in8.9 mm
10:25 PM 65.5°F18.6°C 61.8°F16.6°C 88% 7.0 mph SSW11.3 kmh SSW 14.0 mph22.5 kmh 29.88 in1011.9 mb 0.02 in0.5 mm 0.12 in3.0 mm 0.36 in9.1 mm
10:30 PM 65.3°F18.5°C 62.0°F16.7°C 89% 4.0 mph SSW6.4 kmh SSW 10.0 mph16.1 kmh 29.88 in1011.9 mb 0.02 in0.5 mm 0.00 in0.0 mm 0.36 in9.1 mm
10:35 PM 65.2°F18.4°C 61.9°F16.6°C 89% 3.0 mph SSW4.8 kmh SSW 11.0 mph17.7 kmh 29.88 in1011.9 mb 0.02 in0.5 mm 0.00 in0.0 mm 0.36 in9.1 mm
10:40 PM 65.0°F18.3°C 61.7°F16.5°C 89% 6.0 mph SSW9.7 kmh SSW 12.0 mph19.3 kmh 29.88 in1011.9 mb 0.02 in0.5 mm 0.00 in0.0 mm 0.36 in9.1 mm
10:45 PM 64.7°F18.2°C 61.7°F16.5°C 90% 7.0 mph SSW11.3 kmh SSW 16.0 mph25.7 kmh 29.89 in1012.2 mb 0.02 in0.5 mm 0.00 in0.0 mm 0.36 in9.1 mm
10:50 PM 64.5°F18.1°C 61.5°F16.4°C 90% 6.0 mph SW9.7 kmh SW 14.0 mph22.5 kmh 29.89 in1012.2 mb 0.02 in0.5 mm 0.00 in0.0 mm 0.36 in9.1 mm
10:55 PM 64.3°F17.9°C 61.3°F16.3°C 90% 5.0 mph SW8.0 kmh SW 14.0 mph22.5 kmh 29.89 in1012.2 mb 0.02 in0.5 mm 0.00 in0.0 mm 0.36 in9.1 mm
11:00 PM 64.3°F17.9°C 61.3°F16.3°C 90% 5.0 mph SSW8.0 kmh SSW 13.0 mph20.9 kmh 29.88 in1011.9 mb 0.02 in0.5 mm 0.00 in0.0 mm 0.36 in9.1 mm
11:05 PM 64.2°F17.9°C 61.2°F16.2°C 90% 4.0 mph SSW6.4 kmh SSW 9.0 mph14.5 kmh 29.88 in1011.9 mb 0.02 in0.5 mm 0.00 in0.0 mm 0.36 in9.1 mm
11:10 PM 64.2°F17.9°C 61.2°F16.2°C 90% 7.0 mph SW11.3 kmh SW 14.0 mph22.5 kmh 29.88 in1011.9 mb 0.02 in0.5 mm 0.00 in0.0 mm 0.36 in9.1 mm
11:15 PM 64.2°F17.9°C 61.2°F16.2°C 90% 6.0 mph SW9.7 kmh SW 12.0 mph19.3 kmh 29.90 in1012.5 mb 0.01 in0.3 mm 0.00 in0.0 mm 0.36 in9.1 mm
11:20 PM 64.2°F17.9°C 61.2°F16.2°C 90% 5.0 mph SW8.0 kmh SW 13.0 mph20.9 kmh 29.90 in1012.5 mb 0.01 in0.3 mm 0.00 in0.0 mm 0.36 in9.1 mm
11:25 PM 64.2°F17.9°C 61.5°F16.4°C 91% 6.0 mph S9.7 kmh S 14.0 mph22.5 kmh 29.90 in1012.5 mb 0.00 in0.0 mm 0.00 in0.0 mm 0.36 in9.1 mm
11:30 PM 64.2°F17.9°C 61.5°F16.4°C 91% 5.0 mph S8.0 kmh S 10.0 mph16.1 kmh 29.89 in1012.2 mb 0.00 in0.0 mm 0.00 in0.0 mm 0.36 in9.1 mm
11:35 PM 64.2°F17.9°C 61.5°F16.4°C 91% 4.0 mph SSE6.4 kmh SSE 10.0 mph16.1 kmh 29.89 in1012.2 mb 0.00 in0.0 mm 0.00 in0.0 mm 0.36 in9.1 mm
11:40 PM 64.2°F17.9°C 61.5°F16.4°C 91% 4.0 mph S6.4 kmh S 9.0 mph14.5 kmh 29.89 in1012.2 mb 0.00 in0.0 mm 0.00 in0.0 mm 0.36 in9.1 mm
11:45 PM 64.2°F17.9°C 61.8°F16.6°C 92% 3.0 mph S4.8 kmh S 12.0 mph19.3 kmh 29.90 in1012.5 mb 0.01 in0.3 mm 0.12 in3.0 mm 0.37 in9.4 mm
11:50 PM 64.2°F17.9°C 61.8°F16.6°C 92% 5.0 mph S8.0 kmh S 10.0 mph16.1 kmh 29.90 in1012.5 mb 0.01 in0.3 mm 0.00 in0.0 mm 0.37 in9.4 mm
11:55 PM 64.2°F17.9°C 61.8°F16.6°C 92% 5.0 mph S8.0 kmh S 13.0 mph20.9 kmh 29.90 in1012.5 mb 0.01 in0.3 mm 0.00 in0.0 mm 0.37 in9.4 mm